Leggett, California
Current Conditions -  °F | °C
As of 12:30 AM on Saturday 25 Oct 2014 (Local Time) from KFOT Reporting Station
Overcast Overcast  
Wind Chill: 63°   Ceiling: 3900
Heat Index: 63°   Visibility: 7mi
Dew Point: 54°   Wind: 23mph
Humidity: 72%   Direction: 140°SE
Pressure: 29.65"   Gusts: 33mph
Location:  39.87°N, 123.72°W
Report Text: KFOT 250730Z AUTO 14020G29KT 7SM SCT031 BKN039 OVC044 17/12 A2965 RMK AO1
Loading
Personal Weather Stations






























Interactive Weather Map
Tropical Storm Tracking
New forecast layout! Learn more

10-Day Weather Forecast

Advertisements
Track Severe Weather on mobile